sensor_id;sensor_type;location;lat;lon;timestamp;P1;durP1;ratioP1;P2;durP2;ratioP2
21505;SDS011;10914;48.886;9.394;2023-09-12T00:00:01;54.13;;;50.43;;
21505;SDS011;10914;48.886;9.394;2023-09-12T00:02:34;69.28;;;65.00;;
21505;SDS011;10914;48.886;9.394;2023-09-12T00:04:59;54.22;;;50.53;;
21505;SDS011;10914;48.886;9.394;2023-09-12T00:07:24;58.00;;;54.23;;
21505;SDS011;10914;48.886;9.394;2023-09-12T00:09:49;53.42;;;49.88;;
21505;SDS011;10914;48.886;9.394;2023-09-12T00:12:15;40.47;;;37.40;;
21505;SDS011;10914;48.886;9.394;2023-09-12T00:14:40;38.55;;;35.60;;
21505;SDS011;10914;48.886;9.394;2023-09-12T00:17:05;38.77;;;35.93;;
21505;SDS011;10914;48.886;9.394;2023-09-12T00:19:31;36.97;;;34.17;;
21505;SDS011;10914;48.886;9.394;2023-09-12T00:21:56;41.03;;;38.03;;
21505;SDS011;10914;48.886;9.394;2023-09-12T00:24:21;38.42;;;35.25;;
21505;SDS011;10914;48.886;9.394;2023-09-12T00:26:46;35.77;;;32.57;;
21505;SDS011;10914;48.886;9.394;2023-09-12T00:29:11;39.13;;;35.83;;
21505;SDS011;10914;48.886;9.394;2023-09-12T00:31:36;39.03;;;36.17;;
21505;SDS011;10914;48.886;9.394;2023-09-12T00:34:02;38.58;;;35.47;;
21505;SDS011;10914;48.886;9.394;2023-09-12T00:36:27;37.40;;;34.70;;
21505;SDS011;10914;48.886;9.394;2023-09-12T00:38:52;33.30;;;30.65;;
21505;SDS011;10914;48.886;9.394;2023-09-12T00:41:17;39.27;;;35.93;;
21505;SDS011;10914;48.886;9.394;2023-09-12T00:43:42;35.63;;;32.73;;
21505;SDS011;10914;48.886;9.394;2023-09-12T00:46:07;36.10;;;33.13;;
21505;SDS011;10914;48.886;9.394;2023-09-12T00:48:32;35.43;;;32.63;;
21505;SDS011;10914;48.886;9.394;2023-09-12T00:50:58;35.42;;;32.78;;
21505;SDS011;10914;48.886;9.394;2023-09-12T00:53:23;36.72;;;34.08;;
21505;SDS011;10914;48.886;9.394;2023-09-12T00:55:50;36.07;;;33.33;;
21505;SDS011;10914;48.886;9.394;2023-09-12T00:58:16;36.88;;;33.88;;
21505;SDS011;10914;48.886;9.394;2023-09-12T01:00:42;35.50;;;32.80;;
21505;SDS011;10914;48.886;9.394;2023-09-12T01:03:07;36.80;;;33.78;;
21505;SDS011;10914;48.886;9.394;2023-09-12T01:05:32;37.72;;;34.47;;
21505;SDS011;10914;48.886;9.394;2023-09-12T01:07:59;38.30;;;35.15;;
21505;SDS011;10914;48.886;9.394;2023-09-12T01:10:24;36.42;;;33.33;;
21505;SDS011;10914;48.886;9.394;2023-09-12T01:12:49;36.60;;;33.80;;
21505;SDS011;10914;48.886;9.394;2023-09-12T01:15:15;42.00;;;38.63;;
21505;SDS011;10914;48.886;9.394;2023-09-12T01:17:42;38.70;;;35.80;;
21505;SDS011;10914;48.886;9.394;2023-09-12T01:20:08;38.13;;;34.92;;
21505;SDS011;10914;48.886;9.394;2023-09-12T01:22:39;35.50;;;32.80;;
21505;SDS011;10914;48.886;9.394;2023-09-12T01:25:15;36.25;;;33.35;;
21505;SDS011;10914;48.886;9.394;2023-09-12T01:27:42;36.20;;;33.20;;
21505;SDS011;10914;48.886;9.394;2023-09-12T01:30:10;38.22;;;35.20;;
21505;SDS011;10914;48.886;9.394;2023-09-12T01:32:35;34.15;;;31.50;;
21505;SDS011;10914;48.886;9.394;2023-09-12T01:35:01;34.47;;;31.92;;
21505;SDS011;10914;48.886;9.394;2023-09-12T01:37:29;34.13;;;31.45;;
21505;SDS011;10914;48.886;9.394;2023-09-12T01:39:54;38.40;;;35.30;;
21505;SDS011;10914;48.886;9.394;2023-09-12T01:42:20;36.87;;;34.03;;
21505;SDS011;10914;48.886;9.394;2023-09-12T01:44:45;34.25;;;31.50;;
21505;SDS011;10914;48.886;9.394;2023-09-12T01:47:11;35.28;;;32.53;;
21505;SDS011;10914;48.886;9.394;2023-09-12T01:49:39;36.42;;;33.63;;
21505;SDS011;10914;48.886;9.394;2023-09-12T01:52:05;32.92;;;30.40;;
21505;SDS011;10914;48.886;9.394;2023-09-12T01:54:30;36.72;;;34.13;;
21505;SDS011;10914;48.886;9.394;2023-09-12T01:56:56;36.42;;;33.63;;
21505;SDS011;10914;48.886;9.394;2023-09-12T01:59:23;37.10;;;34.03;;
21505;SDS011;10914;48.886;9.394;2023-09-12T02:01:48;35.88;;;32.90;;
21505;SDS011;10914;48.886;9.394;2023-09-12T02:04:13;38.53;;;35.43;;
21505;SDS011;10914;48.886;9.394;2023-09-12T02:06:38;38.85;;;35.83;;
21505;SDS011;10914;48.886;9.394;2023-09-12T02:09:03;40.07;;;36.87;;
21505;SDS011;10914;48.886;9.394;2023-09-12T02:11:28;46.73;;;43.43;;
21505;SDS011;10914;48.886;9.394;2023-09-12T02:13:54;43.77;;;40.57;;
21505;SDS011;10914;48.886;9.394;2023-09-12T02:16:19;43.00;;;40.07;;
21505;SDS011;10914;48.886;9.394;2023-09-12T02:18:44;41.47;;;38.53;;
21505;SDS011;10914;48.886;9.394;2023-09-12T02:21:09;46.50;;;42.70;;
21505;SDS011;10914;48.886;9.394;2023-09-12T02:23:34;41.13;;;38.05;;
21505;SDS011;10914;48.886;9.394;2023-09-12T02:25:59;46.08;;;42.58;;
21505;SDS011;10914;48.886;9.394;2023-09-12T02:28:25;43.90;;;40.72;;
21505;SDS011;10914;48.886;9.394;2023-09-12T02:30:50;39.63;;;36.67;;
21505;SDS011;10914;48.886;9.394;2023-09-12T02:33:15;40.97;;;38.27;;
21505;SDS011;10914;48.886;9.394;2023-09-12T02:35:40;46.23;;;42.70;;
21505;SDS011;10914;48.886;9.394;2023-09-12T02:38:05;49.07;;;45.20;;
21505;SDS011;10914;48.886;9.394;2023-09-12T02:40:31;36.97;;;34.20;;
21505;SDS011;10914;48.886;9.394;2023-09-12T02:42:56;35.33;;;32.33;;
21505;SDS011;10914;48.886;9.394;2023-09-12T02:45:21;35.13;;;32.57;;
21505;SDS011;10914;48.886;9.394;2023-09-12T02:47:46;38.33;;;35.20;;
21505;SDS011;10914;48.886;9.394;2023-09-12T02:50:11;36.27;;;33.47;;
21505;SDS011;10914;48.886;9.394;2023-09-12T02:52:36;36.15;;;33.40;;
21505;SDS011;10914;48.886;9.394;2023-09-12T02:55:02;36.00;;;33.33;;
21505;SDS011;10914;48.886;9.394;2023-09-12T02:57:27;35.35;;;32.58;;
21505;SDS011;10914;48.886;9.394;2023-09-12T02:59:52;35.20;;;32.57;;
21505;SDS011;10914;48.886;9.394;2023-09-12T03:02:18;36.27;;;33.13;;
21505;SDS011;10914;48.886;9.394;2023-09-12T03:04:43;40.87;;;37.73;;
21505;SDS011;10914;48.886;9.394;2023-09-12T03:07:08;41.23;;;37.63;;
21505;SDS011;10914;48.886;9.394;2023-09-12T03:09:33;34.03;;;31.30;;
21505;SDS011;10914;48.886;9.394;2023-09-12T03:12:00;40.87;;;37.97;;
21505;SDS011;10914;48.886;9.394;2023-09-12T03:14:27;39.65;;;36.45;;
21505;SDS011;10914;48.886;9.394;2023-09-12T03:16:52;37.97;;;34.85;;
21505;SDS011;10914;48.886;9.394;2023-09-12T03:19:17;39.70;;;36.63;;
21505;SDS011;10914;48.886;9.394;2023-09-12T03:21:42;40.37;;;37.07;;
21505;SDS011;10914;48.886;9.394;2023-09-12T03:24:07;36.30;;;33.20;;
21505;SDS011;10914;48.886;9.394;2023-09-12T03:26:33;37.75;;;34.30;;
21505;SDS011;10914;48.886;9.394;2023-09-12T03:28:58;39.90;;;36.63;;
21505;SDS011;10914;48.886;9.394;2023-09-12T03:31:23;38.50;;;35.53;;
21505;SDS011;10914;48.886;9.394;2023-09-12T03:33:49;36.35;;;33.58;;
21505;SDS011;10914;48.886;9.394;2023-09-12T03:36:15;35.88;;;32.88;;
21505;SDS011;10914;48.886;9.394;2023-09-12T03:38:41;39.72;;;36.15;;
21505;SDS011;10914;48.886;9.394;2023-09-12T03:41:06;37.03;;;33.67;;
21505;SDS011;10914;48.886;9.394;2023-09-12T03:43:32;36.57;;;33.77;;
21505;SDS011;10914;48.886;9.394;2023-09-12T03:45:57;39.15;;;35.78;;
21505;SDS011;10914;48.886;9.394;2023-09-12T03:48:23;37.50;;;34.50;;
21505;SDS011;10914;48.886;9.394;2023-09-12T03:50:48;37.75;;;34.95;;
21505;SDS011;10914;48.886;9.394;2023-09-12T03:53:14;38.93;;;36.07;;
21505;SDS011;10914;48.886;9.394;2023-09-12T03:55:39;35.28;;;32.53;;
21505;SDS011;10914;48.886;9.394;2023-09-12T03:58:04;37.00;;;34.00;;
21505;SDS011;10914;48.886;9.394;2023-09-12T04:00:29;38.33;;;34.73;;
21505;SDS011;10914;48.886;9.394;2023-09-12T04:02:55;36.42;;;33.47;;
21505;SDS011;10914;48.886;9.394;2023-09-12T04:05:20;34.53;;;32.00;;
21505;SDS011;10914;48.886;9.394;2023-09-12T04:07:45;35.27;;;32.23;;
21505;SDS011;10914;48.886;9.394;2023-09-12T04:10:10;36.83;;;34.17;;
21505;SDS011;10914;48.886;9.394;2023-09-12T04:12:35;35.07;;;32.47;;
21505;SDS011;10914;48.886;9.394;2023-09-12T04:15:00;34.63;;;32.13;;
21505;SDS011;10914;48.886;9.394;2023-09-12T04:17:26;36.23;;;33.10;;
21505;SDS011;10914;48.886;9.394;2023-09-12T04:19:51;34.33;;;31.57;;
21505;SDS011;10914;48.886;9.394;2023-09-12T04:22:16;36.15;;;32.85;;
21505;SDS011;10914;48.886;9.394;2023-09-12T04:24:41;36.00;;;33.23;;
21505;SDS011;10914;48.886;9.394;2023-09-12T04:27:06;38.05;;;35.05;;
21505;SDS011;10914;48.886;9.394;2023-09-12T04:29:32;37.25;;;34.35;;
21505;SDS011;10914;48.886;9.394;2023-09-12T04:31:58;39.97;;;36.65;;
21505;SDS011;10914;48.886;9.394;2023-09-12T04:34:25;38.30;;;35.30;;
21505;SDS011;10914;48.886;9.394;2023-09-12T04:36:50;36.00;;;33.20;;
21505;SDS011;10914;48.886;9.394;2023-09-12T04:39:15;36.13;;;33.17;;
21505;SDS011;10914;48.886;9.394;2023-09-12T04:41:40;38.13;;;35.10;;
21505;SDS011;10914;48.886;9.394;2023-09-12T04:44:06;39.65;;;36.78;;
21505;SDS011;10914;48.886;9.394;2023-09-12T04:46:31;36.07;;;33.23;;
21505;SDS011;10914;48.886;9.394;2023-09-12T04:48:56;35.00;;;32.43;;
21505;SDS011;10914;48.886;9.394;2023-09-12T04:51:21;35.67;;;32.78;;
21505;SDS011;10914;48.886;9.394;2023-09-12T04:53:46;34.67;;;31.80;;
21505;SDS011;10914;48.886;9.394;2023-09-12T04:56:16;34.25;;;31.80;;
21505;SDS011;10914;48.886;9.394;2023-09-12T04:58:41;33.35;;;30.65;;
21505;SDS011;10914;48.886;9.394;2023-09-12T05:01:06;34.47;;;31.60;;
21505;SDS011;10914;48.886;9.394;2023-09-12T05:03:31;36.83;;;34.07;;
21505;SDS011;10914;48.886;9.394;2023-09-12T05:05:58;35.75;;;32.45;;
21505;SDS011;10914;48.886;9.394;2023-09-12T05:08:23;35.25;;;32.72;;
21505;SDS011;10914;48.886;9.394;2023-09-12T05:10:49;40.25;;;37.22;;
21505;SDS011;10914;48.886;9.394;2023-09-12T05:13:14;34.53;;;31.65;;
21505;SDS011;10914;48.886;9.394;2023-09-12T05:15:40;32.93;;;30.17;;
21505;SDS011;10914;48.886;9.394;2023-09-12T05:18:06;33.47;;;30.58;;
21505;SDS011;10914;48.886;9.394;2023-09-12T05:20:31;32.40;;;29.98;;
21505;SDS011;10914;48.886;9.394;2023-09-12T05:22:57;33.65;;;30.92;;
21505;SDS011;10914;48.886;9.394;2023-09-12T05:25:22;35.27;;;32.60;;
21505;SDS011;10914;48.886;9.394;2023-09-12T05:27:47;35.73;;;33.10;;
21505;SDS011;10914;48.886;9.394;2023-09-12T05:30:12;36.67;;;33.90;;
21505;SDS011;10914;48.886;9.394;2023-09-12T05:32:37;53.55;;;50.13;;
21505;SDS011;10914;48.886;9.394;2023-09-12T05:35:03;33.93;;;30.90;;
21505;SDS011;10914;48.886;9.394;2023-09-12T05:37:28;33.15;;;30.65;;
21505;SDS011;10914;48.886;9.394;2023-09-12T05:39:53;36.88;;;34.13;;
21505;SDS011;10914;48.886;9.394;2023-09-12T05:42:19;34.03;;;31.60;;
21505;SDS011;10914;48.886;9.394;2023-09-12T05:44:47;36.95;;;34.05;;
21505;SDS011;10914;48.886;9.394;2023-09-12T05:47:12;32.60;;;29.88;;
21505;SDS011;10914;48.886;9.394;2023-09-12T05:49:37;31.33;;;28.80;;
21505;SDS011;10914;48.886;9.394;2023-09-12T05:52:02;31.43;;;29.03;;
21505;SDS011;10914;48.886;9.394;2023-09-12T05:54:27;32.90;;;30.02;;
21505;SDS011;10914;48.886;9.394;2023-09-12T05:56:53;32.05;;;29.20;;
21505;SDS011;10914;48.886;9.394;2023-09-12T05:59:18;35.35;;;32.72;;
21505;SDS011;10914;48.886;9.394;2023-09-12T06:01:44;34.37;;;31.53;;
21505;SDS011;10914;48.886;9.394;2023-09-12T06:04:09;31.67;;;28.88;;
21505;SDS011;10914;48.886;9.394;2023-09-12T06:06:34;31.65;;;28.90;;
21505;SDS011;10914;48.886;9.394;2023-09-12T06:08:59;31.35;;;29.10;;
21505;SDS011;10914;48.886;9.394;2023-09-12T06:11:25;30.43;;;28.17;;
21505;SDS011;10914;48.886;9.394;2023-09-12T06:13:50;31.45;;;28.83;;
21505;SDS011;10914;48.886;9.394;2023-09-12T06:16:15;31.63;;;28.88;;
21505;SDS011;10914;48.886;9.394;2023-09-12T06:18:40;30.63;;;28.33;;
21505;SDS011;10914;48.886;9.394;2023-09-12T06:21:05;30.97;;;28.67;;
21505;SDS011;10914;48.886;9.394;2023-09-12T06:23:33;31.90;;;29.42;;
21505;SDS011;10914;48.886;9.394;2023-09-12T06:25:58;31.10;;;28.67;;
21505;SDS011;10914;48.886;9.394;2023-09-12T06:28:24;32.30;;;29.83;;
21505;SDS011;10914;48.886;9.394;2023-09-12T06:30:49;29.35;;;27.30;;
21505;SDS011;10914;48.886;9.394;2023-09-12T06:33:15;29.77;;;27.57;;
21505;SDS011;10914;48.886;9.394;2023-09-12T06:35:40;28.17;;;25.87;;
21505;SDS011;10914;48.886;9.394;2023-09-12T06:38:05;27.33;;;25.13;;
21505;SDS011;10914;48.886;9.394;2023-09-12T06:40:30;27.33;;;25.07;;
21505;SDS011;10914;48.886;9.394;2023-09-12T06:42:55;28.67;;;26.17;;
21505;SDS011;10914;48.886;9.394;2023-09-12T06:45:20;28.40;;;26.40;;
21505;SDS011;10914;48.886;9.394;2023-09-12T06:47:46;30.10;;;27.57;;
21505;SDS011;10914;48.886;9.394;2023-09-12T06:50:11;28.40;;;26.40;;
21505;SDS011;10914;48.886;9.394;2023-09-12T06:52:36;29.00;;;26.83;;
21505;SDS011;10914;48.886;9.394;2023-09-12T06:55:01;27.80;;;25.83;;
21505;SDS011;10914;48.886;9.394;2023-09-12T06:57:26;28.53;;;26.33;;
21505;SDS011;10914;48.886;9.394;2023-09-12T06:59:52;28.48;;;25.95;;
21505;SDS011;10914;48.886;9.394;2023-09-12T07:02:17;28.93;;;26.63;;
21505;SDS011;10914;48.886;9.394;2023-09-12T07:04:43;29.45;;;27.13;;
21505;SDS011;10914;48.886;9.394;2023-09-12T07:07:08;27.00;;;24.98;;
21505;SDS011;10914;48.886;9.394;2023-09-12T07:09:33;28.98;;;26.67;;
21505;SDS011;10914;48.886;9.394;2023-09-12T07:11:58;27.67;;;25.57;;
21505;SDS011;10914;48.886;9.394;2023-09-12T07:14:24;31.35;;;29.13;;
21505;SDS011;10914;48.886;9.394;2023-09-12T07:16:50;31.52;;;29.23;;
21505;SDS011;10914;48.886;9.394;2023-09-12T07:19:15;31.00;;;28.67;;
21505;SDS011;10914;48.886;9.394;2023-09-12T07:21:40;30.65;;;28.20;;
21505;SDS011;10914;48.886;9.394;2023-09-12T07:24:06;28.83;;;26.92;;
21505;SDS011;10914;48.886;9.394;2023-09-12T07:26:32;30.55;;;28.20;;
21505;SDS011;10914;48.886;9.394;2023-09-12T07:28:57;29.33;;;27.05;;
21505;SDS011;10914;48.886;9.394;2023-09-12T07:31:23;30.02;;;27.65;;
21505;SDS011;10914;48.886;9.394;2023-09-12T07:33:48;29.58;;;27.40;;
21505;SDS011;10914;48.886;9.394;2023-09-12T07:36:13;30.30;;;27.77;;
21505;SDS011;10914;48.886;9.394;2023-09-12T07:38:39;32.05;;;29.50;;
21505;SDS011;10914;48.886;9.394;2023-09-12T07:41:04;33.20;;;30.80;;
21505;SDS011;10914;48.886;9.394;2023-09-12T07:43:31;28.90;;;26.30;;
21505;SDS011;10914;48.886;9.394;2023-09-12T07:45:57;28.00;;;25.40;;
21505;SDS011;10914;48.886;9.394;2023-09-12T07:48:23;27.98;;;25.63;;
21505;SDS011;10914;48.886;9.394;2023-09-12T07:50:48;27.30;;;25.00;;
21505;SDS011;10914;48.886;9.394;2023-09-12T07:53:14;27.92;;;25.55;;
21505;SDS011;10914;48.886;9.394;2023-09-12T07:55:39;26.75;;;24.88;;
21505;SDS011;10914;48.886;9.394;2023-09-12T07:58:14;26.27;;;24.38;;
21505;SDS011;10914;48.886;9.394;2023-09-12T08:00:39;27.73;;;25.20;;
21505;SDS011;10914;48.886;9.394;2023-09-12T08:03:04;25.60;;;23.70;;
21505;SDS011;10914;48.886;9.394;2023-09-12T08:05:29;27.73;;;25.67;;
21505;SDS011;10914;48.886;9.394;2023-09-12T08:07:54;26.90;;;24.53;;
21505;SDS011;10914;48.886;9.394;2023-09-12T08:10:20;26.80;;;24.60;;
21505;SDS011;10914;48.886;9.394;2023-09-12T08:12:45;29.30;;;27.00;;
21505;SDS011;10914;48.886;9.394;2023-09-12T08:15:10;27.80;;;25.37;;
21505;SDS011;10914;48.886;9.394;2023-09-12T08:17:35;27.03;;;25.03;;
21505;SDS011;10914;48.886;9.394;2023-09-12T08:20:01;28.50;;;26.03;;
21505;SDS011;10914;48.886;9.394;2023-09-12T08:22:27;26.42;;;24.60;;
21505;SDS011;10914;48.886;9.394;2023-09-12T08:24:52;27.75;;;25.65;;
21505;SDS011;10914;48.886;9.394;2023-09-12T08:27:18;28.83;;;26.23;;
21505;SDS011;10914;48.886;9.394;2023-09-12T08:29:43;28.30;;;25.80;;
21505;SDS011;10914;48.886;9.394;2023-09-12T08:32:09;28.08;;;26.08;;
21505;SDS011;10914;48.886;9.394;2023-09-12T08:34:34;33.00;;;30.70;;
21505;SDS011;10914;48.886;9.394;2023-09-12T08:37:00;28.73;;;26.83;;
21505;SDS011;10914;48.886;9.394;2023-09-12T08:39:25;27.33;;;25.40;;
21505;SDS011;10914;48.886;9.394;2023-09-12T08:41:51;28.00;;;25.85;;
21505;SDS011;10914;48.886;9.394;2023-09-12T08:44:16;26.38;;;24.38;;
21505;SDS011;10914;48.886;9.394;2023-09-12T08:46:41;27.77;;;25.67;;
21505;SDS011;10914;48.886;9.394;2023-09-12T08:49:07;27.63;;;25.55;;
21505;SDS011;10914;48.886;9.394;2023-09-12T08:51:32;28.67;;;26.42;;
21505;SDS011;10914;48.886;9.394;2023-09-12T08:53:58;28.27;;;26.10;;
21505;SDS011;10914;48.886;9.394;2023-09-12T08:56:24;28.42;;;26.10;;
21505;SDS011;10914;48.886;9.394;2023-09-12T08:58:49;27.80;;;25.73;;
21505;SDS011;10914;48.886;9.394;2023-09-12T09:01:15;28.88;;;26.73;;
21505;SDS011;10914;48.886;9.394;2023-09-12T09:03:43;28.90;;;27.00;;
21505;SDS011;10914;48.886;9.394;2023-09-12T09:06:09;27.77;;;25.73;;
21505;SDS011;10914;48.886;9.394;2023-09-12T09:08:34;27.08;;;25.23;;
21505;SDS011;10914;48.886;9.394;2023-09-12T09:11:00;29.02;;;26.30;;
21505;SDS011;10914;48.886;9.394;2023-09-12T09:13:30;28.27;;;26.38;;
21505;SDS011;10914;48.886;9.394;2023-09-12T09:16:12;28.63;;;26.43;;
21505;SDS011;10914;48.886;9.394;2023-09-12T09:18:53;29.15;;;26.75;;
21505;SDS011;10914;48.886;9.394;2023-09-12T09:21:19;29.33;;;27.13;;
21505;SDS011;10914;48.886;9.394;2023-09-12T09:23:45;30.38;;;27.80;;
21505;SDS011;10914;48.886;9.394;2023-09-12T09:26:11;28.70;;;26.50;;
21505;SDS011;10914;48.886;9.394;2023-09-12T09:28:36;29.77;;;27.47;;
21505;SDS011;10914;48.886;9.394;2023-09-12T09:31:01;29.00;;;26.80;;
21505;SDS011;10914;48.886;9.394;2023-09-12T09:33:29;28.95;;;26.85;;
21505;SDS011;10914;48.886;9.394;2023-09-12T09:36:03;28.85;;;26.85;;
21505;SDS011;10914;48.886;9.394;2023-09-12T09:38:29;28.20;;;26.15;;
21505;SDS011;10914;48.886;9.394;2023-09-12T09:40:54;28.48;;;26.27;;
21505;SDS011;10914;48.886;9.394;2023-09-12T09:43:20;27.63;;;25.52;;
21505;SDS011;10914;48.886;9.394;2023-09-12T09:45:45;28.55;;;26.45;;
21505;SDS011;10914;48.886;9.394;2023-09-12T09:48:17;28.35;;;26.17;;
21505;SDS011;10914;48.886;9.394;2023-09-12T09:50:42;27.67;;;25.58;;
21505;SDS011;10914;48.886;9.394;2023-09-12T09:53:07;28.67;;;26.53;;
21505;SDS011;10914;48.886;9.394;2023-09-12T09:55:34;27.58;;;25.33;;
21505;SDS011;10914;48.886;9.394;2023-09-12T09:58:00;27.90;;;25.77;;
21505;SDS011;10914;48.886;9.394;2023-09-12T10:00:25;27.97;;;25.90;;
21505;SDS011;10914;48.886;9.394;2023-09-12T10:02:50;27.70;;;25.73;;
21505;SDS011;10914;48.886;9.394;2023-09-12T10:05:17;28.88;;;26.77;;
21505;SDS011;10914;48.886;9.394;2023-09-12T10:07:42;28.92;;;26.63;;
21505;SDS011;10914;48.886;9.394;2023-09-12T10:10:10;27.65;;;25.55;;
21505;SDS011;10914;48.886;9.394;2023-09-12T10:12:36;28.95;;;26.95;;
21505;SDS011;10914;48.886;9.394;2023-09-12T10:15:03;29.15;;;27.10;;
21505;SDS011;10914;48.886;9.394;2023-09-12T10:17:31;30.27;;;27.80;;
21505;SDS011;10914;48.886;9.394;2023-09-12T10:20:01;30.30;;;28.27;;
21505;SDS011;10914;48.886;9.394;2023-09-12T10:22:34;30.15;;;27.95;;
21505;SDS011;10914;48.886;9.394;2023-09-12T10:25:01;29.60;;;27.20;;
21505;SDS011;10914;48.886;9.394;2023-09-12T10:27:27;29.67;;;27.67;;
21505;SDS011;10914;48.886;9.394;2023-09-12T10:29:54;29.67;;;27.63;;
21505;SDS011;10914;48.886;9.394;2023-09-12T10:32:20;38.53;;;36.03;;
21505;SDS011;10914;48.886;9.394;2023-09-12T10:34:46;37.80;;;35.17;;
21505;SDS011;10914;48.886;9.394;2023-09-12T10:37:16;32.92;;;30.85;;
21505;SDS011;10914;48.886;9.394;2023-09-12T10:39:43;32.65;;;30.35;;
21505;SDS011;10914;48.886;9.394;2023-09-12T10:42:08;32.35;;;30.27;;
21505;SDS011;10914;48.886;9.394;2023-09-12T10:44:34;33.65;;;31.33;;
21505;SDS011;10914;48.886;9.394;2023-09-12T10:46:59;31.67;;;29.58;;
21505;SDS011;10914;48.886;9.394;2023-09-12T10:49:25;32.45;;;29.95;;
21505;SDS011;10914;48.886;9.394;2023-09-12T10:51:50;26.50;;;24.70;;
21505;SDS011;10914;48.886;9.394;2023-09-12T10:54:16;25.88;;;23.88;;
21505;SDS011;10914;48.886;9.394;2023-09-12T10:56:47;26.90;;;24.75;;
21505;SDS011;10914;48.886;9.394;2023-09-12T10:59:26;25.17;;;23.20;;
21505;SDS011;10914;48.886;9.394;2023-09-12T11:01:56;25.00;;;23.20;;
21505;SDS011;10914;48.886;9.394;2023-09-12T11:04:41;26.60;;;24.50;;
21505;SDS011;10914;48.886;9.394;2023-09-12T11:07:29;24.60;;;22.80;;
21505;SDS011;10914;48.886;9.394;2023-09-12T11:10:10;24.77;;;23.08;;
21505;SDS011;10914;48.886;9.394;2023-09-12T11:12:37;24.23;;;22.40;;
21505;SDS011;10914;48.886;9.394;2023-09-12T11:15:05;24.57;;;22.97;;
21505;SDS011;10914;48.886;9.394;2023-09-12T11:17:31;24.27;;;22.42;;
21505;SDS011;10914;48.886;9.394;2023-09-12T11:20:02;23.10;;;21.50;;
21505;SDS011;10914;48.886;9.394;2023-09-12T11:22:34;24.15;;;22.50;;
21505;SDS011;10914;48.886;9.394;2023-09-12T11:25:02;23.33;;;21.48;;
21505;SDS011;10914;48.886;9.394;2023-09-12T11:27:45;22.70;;;20.98;;
21505;SDS011;10914;48.886;9.394;2023-09-12T11:30:10;24.15;;;22.08;;
21505;SDS011;10914;48.886;9.394;2023-09-12T11:32:36;22.00;;;20.27;;
21505;SDS011;10914;48.886;9.394;2023-09-12T11:35:07;22.38;;;20.77;;
21505;SDS011;10914;48.886;9.394;2023-09-12T11:37:33;22.38;;;20.77;;
21505;SDS011;10914;48.886;9.394;2023-09-12T11:39:58;22.50;;;20.93;;
21505;SDS011;10914;48.886;9.394;2023-09-12T11:42:24;22.27;;;20.83;;
21505;SDS011;10914;48.886;9.394;2023-09-12T11:44:52;22.50;;;20.88;;
21505;SDS011;10914;48.886;9.394;2023-09-12T11:47:17;22.33;;;20.93;;
21505;SDS011;10914;48.886;9.394;2023-09-12T11:49:43;22.80;;;21.20;;
21505;SDS011;10914;48.886;9.394;2023-09-12T11:52:09;23.05;;;21.45;;
21505;SDS011;10914;48.886;9.394;2023-09-12T11:54:34;22.63;;;20.90;;
21505;SDS011;10914;48.886;9.394;2023-09-12T11:57:01;21.25;;;19.77;;
21505;SDS011;10914;48.886;9.394;2023-09-12T11:59:26;22.35;;;20.63;;
21505;SDS011;10914;48.886;9.394;2023-09-12T12:01:52;22.38;;;20.67;;
21505;SDS011;10914;48.886;9.394;2023-09-12T12:04:17;22.50;;;20.90;;
21505;SDS011;10914;48.886;9.394;2023-09-12T12:06:45;21.90;;;20.25;;
21505;SDS011;10914;48.886;9.394;2023-09-12T12:09:10;21.63;;;19.97;;
21505;SDS011;10914;48.886;9.394;2023-09-12T12:11:35;21.43;;;19.93;;
21505;SDS011;10914;48.886;9.394;2023-09-12T12:14:10;20.40;;;19.07;;
21505;SDS011;10914;48.886;9.394;2023-09-12T12:16:36;21.00;;;19.50;;
21505;SDS011;10914;48.886;9.394;2023-09-12T12:19:01;22.07;;;20.33;;
21505;SDS011;10914;48.886;9.394;2023-09-12T12:21:26;21.30;;;19.80;;
21505;SDS011;10914;48.886;9.394;2023-09-12T12:24:02;21.35;;;19.77;;
21505;SDS011;10914;48.886;9.394;2023-09-12T12:26:28;21.80;;;20.05;;
21505;SDS011;10914;48.886;9.394;2023-09-12T12:28:53;21.08;;;19.50;;
21505;SDS011;10914;48.886;9.394;2023-09-12T12:31:18;21.07;;;19.43;;
21505;SDS011;10914;48.886;9.394;2023-09-12T12:33:52;21.00;;;19.58;;
21505;SDS011;10914;48.886;9.394;2023-09-12T12:36:18;20.95;;;19.48;;
21505;SDS011;10914;48.886;9.394;2023-09-12T12:38:43;20.83;;;19.52;;
21505;SDS011;10914;48.886;9.394;2023-09-12T12:41:10;20.90;;;19.40;;
21505;SDS011;10914;48.886;9.394;2023-09-12T12:43:35;22.60;;;21.00;;
21505;SDS011;10914;48.886;9.394;2023-09-12T12:46:01;22.42;;;20.92;;
21505;SDS011;10914;48.886;9.394;2023-09-12T12:48:32;22.57;;;21.07;;
21505;SDS011;10914;48.886;9.394;2023-09-12T12:50:58;22.35;;;20.73;;
21505;SDS011;10914;48.886;9.394;2023-09-12T12:56:04;22.23;;;20.60;;
21505;SDS011;10914;48.886;9.394;2023-09-12T12:58:29;22.03;;;20.73;;
21505;SDS011;10914;48.886;9.394;2023-09-12T13:00:54;23.83;;;22.17;;
21505;SDS011;10914;48.886;9.394;2023-09-12T13:03:19;23.27;;;21.67;;
21505;SDS011;10914;48.886;9.394;2023-09-12T13:05:45;22.73;;;21.23;;
21505;SDS011;10914;48.886;9.394;2023-09-12T13:08:10;21.93;;;20.53;;
21505;SDS011;10914;48.886;9.394;2023-09-12T13:10:35;23.10;;;20.97;;
21505;SDS011;10914;48.886;9.394;2023-09-12T13:13:02;22.10;;;20.58;;
21505;SDS011;10914;48.886;9.394;2023-09-12T13:15:27;22.85;;;21.38;;
21505;SDS011;10914;48.886;9.394;2023-09-12T13:17:53;24.87;;;23.07;;
21505;SDS011;10914;48.886;9.394;2023-09-12T13:20:18;22.87;;;21.30;;
21505;SDS011;10914;48.886;9.394;2023-09-12T13:22:43;23.20;;;21.70;;
21505;SDS011;10914;48.886;9.394;2023-09-12T13:25:09;23.35;;;21.85;;
21505;SDS011;10914;48.886;9.394;2023-09-12T13:27:34;24.05;;;22.45;;
21505;SDS011;10914;48.886;9.394;2023-09-12T13:29:59;24.37;;;22.70;;
21505;SDS011;10914;48.886;9.394;2023-09-12T13:32:24;24.43;;;22.83;;
21505;SDS011;10914;48.886;9.394;2023-09-12T13:34:49;27.10;;;25.00;;
21505;SDS011;10914;48.886;9.394;2023-09-12T13:37:15;24.77;;;23.00;;
21505;SDS011;10914;48.886;9.394;2023-09-12T13:39:41;23.98;;;22.45;;
21505;SDS011;10914;48.886;9.394;2023-09-12T13:42:12;24.15;;;22.27;;
21505;SDS011;10914;48.886;9.394;2023-09-12T13:44:39;24.27;;;22.70;;
21505;SDS011;10914;48.886;9.394;2023-09-12T13:47:04;23.97;;;22.20;;
21505;SDS011;10914;48.886;9.394;2023-09-12T13:49:29;24.53;;;22.60;;
21505;SDS011;10914;48.886;9.394;2023-09-12T13:51:54;25.07;;;23.23;;
21505;SDS011;10914;48.886;9.394;2023-09-12T13:54:20;23.63;;;21.97;;
21505;SDS011;10914;48.886;9.394;2023-09-12T13:56:45;25.40;;;23.53;;
21505;SDS011;10914;48.886;9.394;2023-09-12T13:59:10;24.30;;;22.77;;
21505;SDS011;10914;48.886;9.394;2023-09-12T14:01:36;23.77;;;22.35;;
21505;SDS011;10914;48.886;9.394;2023-09-12T14:04:04;23.70;;;21.93;;
21505;SDS011;10914;48.886;9.394;2023-09-12T14:06:29;20.88;;;19.58;;
21505;SDS011;10914;48.886;9.394;2023-09-12T14:08:54;21.00;;;19.27;;
21505;SDS011;10914;48.886;9.394;2023-09-12T14:11:19;19.80;;;18.30;;
21505;SDS011;10914;48.886;9.394;2023-09-12T14:13:45;20.53;;;18.93;;
21505;SDS011;10914;48.886;9.394;2023-09-12T14:16:10;19.90;;;18.50;;